DLH5MC EDDM-LGMK
Flight info
| Callsign | DLH5MC |
|---|---|
| Flight time | 2h 8m |
| Altitude | 35000 |
| Route | ROTAX4E ROTAX L603 LATLO DCT OBEDI DCT KFT DCT KLAGY DCT AGLIB DCT DOBOT DCT VABEK UL603 OLOTA DCT DISOR DCT KOROS/N0454F340 DCT NEVRA/N0452F320 UT162 KEA L995 VARIX |
| Aircraft | A321/M-SDE3FGHIRWY/LB1 |
Departure
| Time | 2026-05-09 07:38 |
|---|---|
| Airport | Munich Airport (EDDM) |
Arrival
| Time | 2026-05-09 09:46 |
|---|---|
| Airport | Mykonos Island National Airport (LGMK) |
| Time | Latitude | Longitude | Altitude | Speed | Heading |
|---|---|---|---|---|---|
| 2026-05-09 07:03 | 48.35237 | 11.79356 | 1480 ft | 0 kts | 263° |
| 2026-05-09 07:25 | 48.35238 | 11.79368 | 1473 ft | 4 kts | 263° |
| 2026-05-09 07:25 | 48.35241 | 11.79408 | 1475 ft | 4 kts | 263° |
| 2026-05-09 07:25 | 48.35244 | 11.79440 | 1481 ft | 4 kts | 256° |
| 2026-05-09 07:25 | 48.35255 | 11.79474 | 1482 ft | 4 kts | 215° |
| 2026-05-09 07:26 | 48.35278 | 11.79485 | 1478 ft | 3 kts | 173° |
| 2026-05-09 07:26 | 48.35299 | 11.79481 | 1474 ft | 0 kts | 173° |
| 2026-05-09 07:28 | 48.35288 | 11.79483 | 1479 ft | 7 kts | 174° |
| 2026-05-09 07:28 | 48.35189 | 11.79500 | 1485 ft | 17 kts | 173° |
| 2026-05-09 07:28 | 48.35059 | 11.79522 | 1480 ft | 21 kts | 174° |
| 2026-05-09 07:28 | 48.34913 | 11.79548 | 1474 ft | 21 kts | 173° |
| 2026-05-09 07:29 | 48.34795 | 11.79524 | 1474 ft | 16 kts | 236° |
| 2026-05-09 07:29 | 48.34774 | 11.79332 | 1482 ft | 24 kts | 263° |
| 2026-05-09 07:29 | 48.34752 | 11.79040 | 1475 ft | 29 kts | 263° |
| 2026-05-09 07:29 | 48.34728 | 11.78741 | 1485 ft | 29 kts | 263° |
| 2026-05-09 07:30 | 48.34706 | 11.78443 | 1485 ft | 29 kts | 263° |
| 2026-05-09 07:30 | 48.34683 | 11.78147 | 1482 ft | 28 kts | 263° |
| 2026-05-09 07:30 | 48.34660 | 11.77856 | 1485 ft | 28 kts | 263° |
| 2026-05-09 07:30 | 48.34637 | 11.77559 | 1474 ft | 28 kts | 263° |
| 2026-05-09 07:31 | 48.34615 | 11.77267 | 1485 ft | 28 kts | 263° |
| 2026-05-09 07:31 | 48.34593 | 11.76979 | 1476 ft | 28 kts | 263° |
| 2026-05-09 07:31 | 48.34570 | 11.76681 | 1485 ft | 31 kts | 264° |
| 2026-05-09 07:31 | 48.34545 | 11.76357 | 1481 ft | 31 kts | 262° |
| 2026-05-09 07:32 | 48.34520 | 11.76036 | 1478 ft | 31 kts | 263° |
| 2026-05-09 07:32 | 48.34493 | 11.75801 | 1471 ft | 16 kts | 231° |
| 2026-05-09 07:32 | 48.34390 | 11.75808 | 1476 ft | 16 kts | 149° |
| 2026-05-09 07:32 | 48.34333 | 11.75948 | 1474 ft | 16 kts | 113° |
| 2026-05-09 07:33 | 48.34289 | 11.76103 | 1481 ft | 16 kts | 113° |
| 2026-05-09 07:33 | 48.34261 | 11.76199 | 1473 ft | 0 kts | 113° |
| 2026-05-09 07:35 | 48.34261 | 11.76200 | 1473 ft | 1 kts | 113° |
| 2026-05-09 07:35 | 48.34220 | 11.76334 | 1476 ft | 26 kts | 117° |
| 2026-05-09 07:36 | 48.34173 | 11.76458 | 1479 ft | 9 kts | 96° |
| 2026-05-09 07:36 | 48.34175 | 11.76497 | 1485 ft | 0 kts | 82° |
| 2026-05-09 07:37 | 48.34177 | 11.76519 | 1477 ft | 12 kts | 83° |
| 2026-05-09 07:37 | 48.34213 | 11.76994 | 1485 ft | 81 kts | 83° |
| 2026-05-09 07:37 | 48.34304 | 11.78165 | 1486 ft | 142 kts | 83° |
| 2026-05-09 07:37 | 48.34432 | 11.79849 | 1782 ft | 168 kts | 84° |
| 2026-05-09 07:38 | 48.34559 | 11.81551 | 2632 ft | 165 kts | 84° |
| 2026-05-09 07:38 | 48.34690 | 11.83312 | 2995 ft | 180 kts | 84° |
| 2026-05-09 07:38 | 48.34840 | 11.85313 | 3152 ft | 203 kts | 84° |
| 2026-05-09 07:38 | 48.35007 | 11.87511 | 3380 ft | 221 kts | 84° |
| 2026-05-09 07:39 | 48.35194 | 11.89942 | 3566 ft | 242 kts | 84° |
| 2026-05-09 07:39 | 48.35343 | 11.92439 | 4344 ft | 239 kts | 93° |
| 2026-05-09 07:39 | 48.34979 | 11.94904 | 4833 ft | 251 kts | 112° |
| 2026-05-09 07:39 | 48.34272 | 11.97362 | 5239 ft | 263 kts | 113° |
| 2026-05-09 07:40 | 48.33518 | 11.99892 | 5865 ft | 267 kts | 114° |
| 2026-05-09 07:40 | 48.32744 | 12.02468 | 6467 ft | 273 kts | 114° |
| 2026-05-09 07:40 | 48.31957 | 12.05100 | 7035 ft | 277 kts | 114° |
| 2026-05-09 07:40 | 48.31126 | 12.07739 | 7601 ft | 282 kts | 122° |
| 2026-05-09 07:41 | 48.29911 | 12.10059 | 8158 ft | 285 kts | 138° |
| 2026-05-09 07:41 | 48.28294 | 12.11795 | 8730 ft | 287 kts | 155° |
| 2026-05-09 07:41 | 48.26464 | 12.13019 | 9368 ft | 289 kts | 158° |
| 2026-05-09 07:41 | 48.24633 | 12.14224 | 9997 ft | 291 kts | 158° |
| 2026-05-09 07:42 | 48.22751 | 12.15473 | 10377 ft | 303 kts | 158° |
| 2026-05-09 07:42 | 48.20760 | 12.16793 | 10506 ft | 322 kts | 158° |
| 2026-05-09 07:42 | 48.18647 | 12.18194 | 10632 ft | 340 kts | 158° |
| 2026-05-09 07:42 | 48.16431 | 12.19661 | 10772 ft | 356 kts | 158° |
| 2026-05-09 07:43 | 48.14142 | 12.21202 | 11163 ft | 363 kts | 155° |
| 2026-05-09 07:43 | 48.12007 | 12.23204 | 11640 ft | 369 kts | 145° |
| 2026-05-09 07:43 | 48.09915 | 12.25464 | 12161 ft | 371 kts | 146° |
| 2026-05-09 07:43 | 48.07800 | 12.27728 | 12686 ft | 375 kts | 146° |
| 2026-05-09 07:44 | 48.05664 | 12.30002 | 13203 ft | 378 kts | 146° |
| 2026-05-09 07:44 | 48.03507 | 12.32291 | 13713 ft | 381 kts | 146° |
| 2026-05-09 07:44 | 48.01335 | 12.34597 | 14187 ft | 384 kts | 146° |
| 2026-05-09 07:44 | 47.99174 | 12.36895 | 14631 ft | 387 kts | 146° |
| 2026-05-09 07:45 | 47.97051 | 12.39372 | 15082 ft | 390 kts | 139° |
| 2026-05-09 07:45 | 47.95057 | 12.42164 | 15549 ft | 393 kts | 138° |
| 2026-05-09 07:45 | 47.93057 | 12.44964 | 16018 ft | 396 kts | 138° |
| 2026-05-09 07:45 | 47.91035 | 12.47786 | 16489 ft | 398 kts | 139° |
| 2026-05-09 07:46 | 47.89005 | 12.50612 | 16932 ft | 401 kts | 139° |
| 2026-05-09 07:46 | 47.86957 | 12.53460 | 17362 ft | 403 kts | 139° |
| 2026-05-09 07:46 | 47.84897 | 12.56321 | 17786 ft | 406 kts | 139° |
| 2026-05-09 07:46 | 47.83525 | 12.58225 | 18060 ft | 408 kts | 139° |
| 2026-05-09 07:47 | 47.80776 | 12.62075 | 18601 ft | 411 kts | 138° |
| 2026-05-09 07:47 | 47.78733 | 12.65068 | 18975 ft | 414 kts | 137° |
| 2026-05-09 07:47 | 47.76702 | 12.68126 | 19356 ft | 416 kts | 136° |
| 2026-05-09 07:47 | 47.74678 | 12.71207 | 19729 ft | 418 kts | 136° |
| 2026-05-09 07:48 | 47.73302 | 12.73300 | 19966 ft | 419 kts | 136° |
| 2026-05-09 07:48 | 47.71248 | 12.76406 | 20344 ft | 420 kts | 136° |
| 2026-05-09 07:48 | 47.69212 | 12.79456 | 20709 ft | 422 kts | 137° |
| 2026-05-09 07:48 | 47.67135 | 12.82546 | 21051 ft | 424 kts | 137° |
| 2026-05-09 07:49 | 47.65038 | 12.85651 | 21351 ft | 426 kts | 137° |
| 2026-05-09 07:49 | 47.62934 | 12.88758 | 21714 ft | 428 kts | 137° |
| 2026-05-09 07:49 | 47.60812 | 12.91889 | 22060 ft | 430 kts | 137° |
| 2026-05-09 07:49 | 47.58684 | 12.95027 | 22418 ft | 432 kts | 137° |
| 2026-05-09 07:50 | 47.56545 | 12.98180 | 22750 ft | 435 kts | 137° |
| 2026-05-09 07:50 | 47.54423 | 13.01310 | 23092 ft | 437 kts | 137° |
| 2026-05-09 07:50 | 47.52259 | 13.04501 | 23409 ft | 439 kts | 137° |
| 2026-05-09 07:50 | 47.50081 | 13.07704 | 23729 ft | 441 kts | 137° |
| 2026-05-09 07:51 | 47.47897 | 13.10907 | 23976 ft | 444 kts | 137° |
| 2026-05-09 07:51 | 47.45689 | 13.14141 | 24180 ft | 448 kts | 137° |
| 2026-05-09 07:51 | 47.43464 | 13.17398 | 24393 ft | 451 kts | 138° |
| 2026-05-09 07:51 | 47.41256 | 13.20627 | 24645 ft | 453 kts | 138° |
| 2026-05-09 07:52 | 47.39007 | 13.23913 | 24888 ft | 456 kts | 138° |
| 2026-05-09 07:52 | 47.36747 | 13.27207 | 25164 ft | 458 kts | 138° |
| 2026-05-09 07:52 | 47.34468 | 13.30521 | 25409 ft | 460 kts | 138° |
| 2026-05-09 07:52 | 47.32228 | 13.33938 | 25667 ft | 465 kts | 133° |
| 2026-05-09 07:53 | 47.30136 | 13.37605 | 25895 ft | 467 kts | 133° |
| 2026-05-09 07:53 | 47.28043 | 13.41276 | 26107 ft | 470 kts | 133° |
| 2026-05-09 07:53 | 47.25929 | 13.44981 | 26392 ft | 472 kts | 133° |
| 2026-05-09 07:53 | 47.23829 | 13.48647 | 26609 ft | 475 kts | 133° |
| 2026-05-09 07:54 | 47.21684 | 13.52374 | 26856 ft | 477 kts | 133° |
| 2026-05-09 07:54 | 47.19528 | 13.56114 | 27047 ft | 480 kts | 133° |
| 2026-05-09 07:54 | 47.17365 | 13.59865 | 27217 ft | 482 kts | 133° |
| 2026-05-09 07:54 | 47.15190 | 13.63629 | 27409 ft | 483 kts | 133° |
| 2026-05-09 07:55 | 47.13012 | 13.67398 | 27580 ft | 485 kts | 134° |
| 2026-05-09 07:55 | 47.10824 | 13.71187 | 27798 ft | 487 kts | 134° |
| 2026-05-09 07:55 | 47.08628 | 13.74984 | 27987 ft | 489 kts | 134° |
| 2026-05-09 07:55 | 47.06415 | 13.78805 | 28193 ft | 491 kts | 134° |
| 2026-05-09 07:56 | 47.04197 | 13.82627 | 28381 ft | 493 kts | 134° |
| 2026-05-09 07:56 | 47.01996 | 13.86416 | 28579 ft | 495 kts | 134° |
| 2026-05-09 07:56 | 46.99756 | 13.90258 | 28792 ft | 494 kts | 134° |
| 2026-05-09 07:56 | 46.97520 | 13.94085 | 29043 ft | 495 kts | 134° |
| 2026-05-09 07:57 | 46.95281 | 13.97915 | 29253 ft | 495 kts | 135° |
| 2026-05-09 07:57 | 46.93034 | 14.01759 | 29468 ft | 495 kts | 135° |
| 2026-05-09 07:57 | 46.90788 | 14.05594 | 29674 ft | 495 kts | 135° |
| 2026-05-09 07:57 | 46.88571 | 14.09376 | 29866 ft | 495 kts | 135° |
| 2026-05-09 07:58 | 46.86319 | 14.13219 | 30104 ft | 495 kts | 135° |
| 2026-05-09 07:58 | 46.84076 | 14.17038 | 30327 ft | 495 kts | 135° |
| 2026-05-09 07:58 | 46.81831 | 14.20850 | 30536 ft | 494 kts | 135° |
| 2026-05-09 07:58 | 46.79586 | 14.24655 | 30762 ft | 494 kts | 135° |
| 2026-05-09 07:59 | 46.77344 | 14.28452 | 30985 ft | 493 kts | 135° |
| 2026-05-09 07:59 | 46.75127 | 14.32195 | 31194 ft | 493 kts | 135° |
| 2026-05-09 07:59 | 46.72884 | 14.35975 | 31402 ft | 492 kts | 135° |
| 2026-05-09 07:59 | 46.70634 | 14.39763 | 31574 ft | 493 kts | 135° |
| 2026-05-09 08:00 | 46.68387 | 14.43543 | 31774 ft | 493 kts | 135° |
| 2026-05-09 08:00 | 46.66165 | 14.47274 | 31994 ft | 491 kts | 135° |
| 2026-05-09 08:00 | 46.63932 | 14.51021 | 32289 ft | 488 kts | 135° |
| 2026-05-09 08:00 | 46.61823 | 14.54903 | 32535 ft | 490 kts | 127° |
| 2026-05-09 08:01 | 46.59929 | 14.59042 | 32746 ft | 490 kts | 127° |
| 2026-05-09 08:01 | 46.58041 | 14.63169 | 32960 ft | 489 kts | 127° |
| 2026-05-09 08:01 | 46.56151 | 14.67286 | 33163 ft | 488 kts | 127° |
| 2026-05-09 08:01 | 46.54287 | 14.71336 | 33338 ft | 488 kts | 127° |
| 2026-05-09 08:02 | 46.52392 | 14.75441 | 33503 ft | 488 kts | 127° |
| 2026-05-09 08:02 | 46.50390 | 14.79413 | 33671 ft | 485 kts | 132° |
| 2026-05-09 08:02 | 46.48272 | 14.83219 | 33819 ft | 484 kts | 132° |
| 2026-05-09 08:02 | 46.46148 | 14.87020 | 33977 ft | 484 kts | 133° |
| 2026-05-09 08:03 | 46.44025 | 14.90814 | 34129 ft | 483 kts | 133° |
| 2026-05-09 08:03 | 46.41926 | 14.94564 | 34268 ft | 483 kts | 132° |
| 2026-05-09 08:03 | 46.39810 | 14.98346 | 34420 ft | 483 kts | 132° |
| 2026-05-09 08:03 | 46.37688 | 15.02134 | 34568 ft | 482 kts | 133° |
| 2026-05-09 08:04 | 46.35578 | 15.05897 | 34730 ft | 481 kts | 132° |
| 2026-05-09 08:04 | 46.33468 | 15.09648 | 34875 ft | 480 kts | 132° |
| 2026-05-09 08:04 | 46.31377 | 15.13359 | 35042 ft | 479 kts | 132° |
| 2026-05-09 08:05 | 46.27145 | 15.20873 | 35127 ft | 481 kts | 132° |
| 2026-05-09 08:05 | 46.22918 | 15.28376 | 35127 ft | 481 kts | 132° |
| 2026-05-09 08:06 | 46.18764 | 15.35905 | 35134 ft | 483 kts | 130° |
| 2026-05-09 08:06 | 46.14677 | 15.43656 | 35134 ft | 484 kts | 130° |
| 2026-05-09 08:07 | 46.10601 | 15.51420 | 35126 ft | 484 kts | 130° |
| 2026-05-09 08:07 | 46.06527 | 15.59062 | 35141 ft | 484 kts | 131° |
| 2026-05-09 08:08 | 46.02403 | 15.66721 | 35148 ft | 483 kts | 131° |
| 2026-05-09 08:08 | 45.98274 | 15.74362 | 35152 ft | 483 kts | 131° |
| 2026-05-09 08:09 | 45.94176 | 15.81957 | 35149 ft | 483 kts | 131° |
| 2026-05-09 08:09 | 45.90055 | 15.89587 | 35145 ft | 483 kts | 131° |
| 2026-05-09 08:10 | 45.85929 | 15.97198 | 35117 ft | 483 kts | 131° |
| 2026-05-09 08:10 | 45.81794 | 16.04802 | 35122 ft | 483 kts | 131° |
| 2026-05-09 08:11 | 45.77686 | 16.12343 | 35127 ft | 482 kts | 131° |
| 2026-05-09 08:11 | 45.73543 | 16.19908 | 35132 ft | 482 kts | 131° |
| 2026-05-09 08:12 | 45.67324 | 16.31242 | 35117 ft | 482 kts | 131° |
| 2026-05-09 08:12 | 45.63173 | 16.38780 | 35121 ft | 482 kts | 131° |
| 2026-05-09 08:13 | 45.59042 | 16.46256 | 35126 ft | 481 kts | 131° |
| 2026-05-09 08:13 | 45.54886 | 16.53764 | 35127 ft | 481 kts | 131° |
| 2026-05-09 08:14 | 45.50736 | 16.61268 | 35123 ft | 481 kts | 131° |
| 2026-05-09 08:14 | 45.46562 | 16.68768 | 35123 ft | 482 kts | 131° |
| 2026-05-09 08:15 | 45.42413 | 16.76190 | 35125 ft | 482 kts | 131° |
| 2026-05-09 08:15 | 45.38234 | 16.83653 | 35126 ft | 482 kts | 131° |
| 2026-05-09 08:16 | 45.34049 | 16.91113 | 35112 ft | 482 kts | 131° |
| 2026-05-09 08:16 | 45.29854 | 16.98573 | 35115 ft | 483 kts | 131° |
| 2026-05-09 08:17 | 45.25646 | 17.06026 | 35112 ft | 483 kts | 131° |
| 2026-05-09 08:17 | 45.21465 | 17.13432 | 35121 ft | 483 kts | 131° |
| 2026-05-09 08:18 | 45.17270 | 17.20840 | 35123 ft | 483 kts | 131° |
| 2026-05-09 08:18 | 45.13043 | 17.28272 | 35123 ft | 484 kts | 131° |
| 2026-05-09 08:19 | 45.08833 | 17.35670 | 35124 ft | 484 kts | 131° |
| 2026-05-09 08:19 | 45.04595 | 17.43090 | 35126 ft | 484 kts | 131° |
| 2026-05-09 08:20 | 45.00340 | 17.50517 | 35114 ft | 484 kts | 131° |
| 2026-05-09 08:20 | 44.96093 | 17.57905 | 35127 ft | 484 kts | 131° |
| 2026-05-09 08:21 | 44.91869 | 17.65234 | 35133 ft | 484 kts | 131° |
| 2026-05-09 08:21 | 44.87614 | 17.72623 | 35134 ft | 484 kts | 131° |
| 2026-05-09 08:22 | 44.83348 | 17.79995 | 35135 ft | 484 kts | 131° |
| 2026-05-09 08:22 | 44.79111 | 17.87278 | 35131 ft | 484 kts | 131° |
| 2026-05-09 08:23 | 44.74790 | 17.94582 | 35132 ft | 484 kts | 133° |
| 2026-05-09 08:23 | 44.70354 | 18.01694 | 35128 ft | 482 kts | 134° |
| 2026-05-09 08:24 | 44.65915 | 18.08690 | 35138 ft | 482 kts | 131° |
| 2026-05-09 08:24 | 44.61470 | 18.15746 | 35138 ft | 482 kts | 134° |
| 2026-05-09 08:25 | 44.57045 | 18.22828 | 35138 ft | 482 kts | 133° |
| 2026-05-09 08:25 | 44.52604 | 18.29904 | 35137 ft | 482 kts | 134° |
| 2026-05-09 08:26 | 44.48190 | 18.36898 | 35135 ft | 483 kts | 134° |
| 2026-05-09 08:26 | 44.43730 | 18.43961 | 35132 ft | 482 kts | 134° |
| 2026-05-09 08:27 | 44.39277 | 18.50992 | 35136 ft | 482 kts | 134° |
| 2026-05-09 08:27 | 44.34847 | 18.57978 | 35138 ft | 482 kts | 134° |
| 2026-05-09 08:28 | 44.30387 | 18.64986 | 35136 ft | 481 kts | 134° |
| 2026-05-09 08:28 | 44.25924 | 18.71976 | 35149 ft | 481 kts | 134° |
| 2026-05-09 08:29 | 44.21492 | 18.78913 | 35147 ft | 481 kts | 134° |
| 2026-05-09 08:29 | 44.17034 | 18.85864 | 35145 ft | 481 kts | 134° |
| 2026-05-09 08:30 | 44.12564 | 18.92815 | 35151 ft | 481 kts | 134° |
| 2026-05-09 08:30 | 44.08092 | 18.99765 | 35153 ft | 481 kts | 134° |
| 2026-05-09 08:31 | 44.03634 | 19.06670 | 35153 ft | 481 kts | 134° |
| 2026-05-09 08:31 | 43.99151 | 19.13591 | 35155 ft | 481 kts | 134° |
| 2026-05-09 08:32 | 43.94664 | 19.20506 | 35155 ft | 481 kts | 134° |
| 2026-05-09 08:33 | 43.87954 | 19.30796 | 35157 ft | 481 kts | 134° |
| 2026-05-09 08:33 | 43.83464 | 19.37668 | 35156 ft | 480 kts | 134° |
| 2026-05-09 08:34 | 43.78997 | 19.44507 | 35144 ft | 480 kts | 134° |
| 2026-05-09 08:34 | 43.75264 | 19.50199 | 35147 ft | 480 kts | 134° |
| 2026-05-09 08:35 | 43.70029 | 19.58157 | 35145 ft | 480 kts | 134° |
| 2026-05-09 08:35 | 43.66291 | 19.63829 | 35141 ft | 479 kts | 134° |
| 2026-05-09 08:36 | 43.61790 | 19.70647 | 35143 ft | 479 kts | 134° |
| 2026-05-09 08:36 | 43.57282 | 19.77455 | 35148 ft | 479 kts | 134° |
| 2026-05-09 08:37 | 43.52807 | 19.84198 | 35150 ft | 479 kts | 134° |
| 2026-05-09 08:37 | 43.48305 | 19.90966 | 35146 ft | 479 kts | 134° |
| 2026-05-09 08:38 | 43.43791 | 19.97731 | 35143 ft | 479 kts | 134° |
| 2026-05-09 08:38 | 43.39296 | 20.04446 | 35134 ft | 478 kts | 134° |
| 2026-05-09 08:39 | 43.34770 | 20.11188 | 35137 ft | 478 kts | 134° |
| 2026-05-09 08:39 | 43.30276 | 20.17882 | 35140 ft | 478 kts | 134° |
| 2026-05-09 08:40 | 43.25763 | 20.24591 | 35139 ft | 478 kts | 134° |
| 2026-05-09 08:40 | 43.21276 | 20.31241 | 35136 ft | 477 kts | 134° |
| 2026-05-09 08:41 | 43.16758 | 20.37922 | 35131 ft | 477 kts | 135° |
| 2026-05-09 08:41 | 43.12253 | 20.44562 | 35121 ft | 477 kts | 134° |
| 2026-05-09 08:42 | 43.07729 | 20.51217 | 35132 ft | 476 kts | 134° |
| 2026-05-09 08:42 | 43.03204 | 20.57867 | 35134 ft | 476 kts | 134° |
| 2026-05-09 08:43 | 42.98682 | 20.64406 | 35130 ft | 475 kts | 136° |
| 2026-05-09 08:43 | 42.93932 | 20.70677 | 35132 ft | 475 kts | 139° |
| 2026-05-09 08:44 | 42.89092 | 20.76816 | 35130 ft | 475 kts | 139° |
| 2026-05-09 08:44 | 42.84279 | 20.82989 | 35130 ft | 474 kts | 138° |
| 2026-05-09 08:45 | 42.79541 | 20.89159 | 35128 ft | 474 kts | 137° |
| 2026-05-09 08:45 | 42.74768 | 20.95391 | 35130 ft | 474 kts | 138° |
| 2026-05-09 08:46 | 42.70000 | 21.01582 | 35130 ft | 474 kts | 138° |
| 2026-05-09 08:46 | 42.65209 | 21.07771 | 35132 ft | 474 kts | 138° |
| 2026-05-09 08:47 | 42.60441 | 21.13904 | 35125 ft | 474 kts | 138° |
| 2026-05-09 08:47 | 42.55644 | 21.20071 | 35136 ft | 474 kts | 138° |
| 2026-05-09 08:48 | 42.50850 | 21.26213 | 35133 ft | 473 kts | 138° |
| 2026-05-09 08:48 | 42.46056 | 21.32343 | 35122 ft | 473 kts | 138° |
| 2026-05-09 08:49 | 42.41293 | 21.38421 | 35117 ft | 473 kts | 138° |
| 2026-05-09 08:49 | 42.36488 | 21.44540 | 35099 ft | 473 kts | 138° |
| 2026-05-09 08:50 | 42.31726 | 21.50595 | 35104 ft | 473 kts | 138° |
| 2026-05-09 08:50 | 42.26936 | 21.56691 | 35102 ft | 473 kts | 138° |
| 2026-05-09 08:51 | 42.22129 | 21.62762 | 35100 ft | 472 kts | 139° |
| 2026-05-09 08:51 | 42.17223 | 21.68659 | 35106 ft | 472 kts | 140° |
| 2026-05-09 08:52 | 42.12245 | 21.74443 | 35103 ft | 472 kts | 140° |
| 2026-05-09 08:52 | 42.07273 | 21.80240 | 35101 ft | 472 kts | 140° |
| 2026-05-09 08:53 | 42.02364 | 21.86023 | 35107 ft | 471 kts | 140° |
| 2026-05-09 08:53 | 41.97426 | 21.91836 | 35106 ft | 471 kts | 140° |
| 2026-05-09 08:54 | 41.92493 | 21.97621 | 35106 ft | 470 kts | 140° |
| 2026-05-09 08:54 | 41.87586 | 22.03359 | 35108 ft | 470 kts | 140° |
| 2026-05-09 08:55 | 41.82646 | 22.09130 | 35096 ft | 470 kts | 140° |
| 2026-05-09 08:55 | 41.77699 | 22.14887 | 35102 ft | 470 kts | 140° |
| 2026-05-09 08:56 | 41.72776 | 22.20606 | 35106 ft | 470 kts | 140° |
| 2026-05-09 08:56 | 41.67818 | 22.26352 | 35108 ft | 470 kts | 141° |
| 2026-05-09 08:57 | 41.62896 | 22.32057 | 35103 ft | 469 kts | 140° |
| 2026-05-09 08:57 | 41.57945 | 22.37776 | 35091 ft | 469 kts | 141° |
| 2026-05-09 08:58 | 41.53015 | 22.43452 | 35094 ft | 470 kts | 141° |
| 2026-05-09 08:58 | 41.48070 | 22.49136 | 35100 ft | 470 kts | 141° |
| 2026-05-09 08:59 | 41.43098 | 22.54853 | 35099 ft | 470 kts | 141° |
| 2026-05-09 08:59 | 41.38167 | 22.60514 | 35095 ft | 469 kts | 141° |
| 2026-05-09 09:00 | 41.33206 | 22.66176 | 35083 ft | 469 kts | 141° |
| 2026-05-09 09:00 | 41.28231 | 22.71831 | 35080 ft | 470 kts | 141° |
| 2026-05-09 09:01 | 41.23234 | 22.77474 | 35085 ft | 471 kts | 142° |
| 2026-05-09 09:01 | 41.18144 | 22.82866 | 35094 ft | 471 kts | 144° |
| 2026-05-09 09:02 | 41.12943 | 22.88172 | 35095 ft | 471 kts | 144° |
| 2026-05-09 09:02 | 41.07758 | 22.93497 | 35087 ft | 471 kts | 144° |
| 2026-05-09 09:03 | 41.02605 | 22.98863 | 35090 ft | 471 kts | 143° |
| 2026-05-09 09:03 | 40.97474 | 23.04209 | 35093 ft | 472 kts | 144° |
| 2026-05-09 09:04 | 40.92295 | 23.09568 | 35090 ft | 472 kts | 144° |
| 2026-05-09 09:04 | 40.87110 | 23.14920 | 35095 ft | 472 kts | 144° |
| 2026-05-09 09:05 | 40.81953 | 23.20238 | 35091 ft | 472 kts | 144° |
| 2026-05-09 09:05 | 40.76768 | 23.25579 | 35081 ft | 472 kts | 144° |
| 2026-05-09 09:06 | 40.71605 | 23.30881 | 35073 ft | 473 kts | 144° |
| 2026-05-09 09:06 | 40.66400 | 23.36201 | 35080 ft | 473 kts | 144° |
| 2026-05-09 09:07 | 40.61182 | 23.41526 | 35086 ft | 473 kts | 144° |
| 2026-05-09 09:07 | 40.55980 | 23.46842 | 35076 ft | 473 kts | 144° |
| 2026-05-09 09:08 | 40.50798 | 23.52120 | 35068 ft | 474 kts | 144° |
| 2026-05-09 09:08 | 40.45564 | 23.57430 | 35068 ft | 475 kts | 144° |
| 2026-05-09 09:09 | 40.40318 | 23.62749 | 35071 ft | 476 kts | 144° |
| 2026-05-09 09:09 | 40.35068 | 23.68063 | 35074 ft | 476 kts | 144° |
| 2026-05-09 09:10 | 40.29843 | 23.73336 | 35073 ft | 476 kts | 144° |
| 2026-05-09 09:10 | 40.24585 | 23.78642 | 35080 ft | 476 kts | 145° |
| 2026-05-09 09:11 | 40.19311 | 23.83934 | 35079 ft | 476 kts | 145° |
| 2026-05-09 09:11 | 40.14075 | 23.89189 | 35078 ft | 476 kts | 145° |
| 2026-05-09 09:12 | 40.08807 | 23.94475 | 35078 ft | 476 kts | 145° |
| 2026-05-09 09:12 | 40.03571 | 23.99712 | 35069 ft | 476 kts | 145° |
| 2026-05-09 09:13 | 39.98288 | 24.04988 | 35062 ft | 478 kts | 145° |
| 2026-05-09 09:13 | 39.93027 | 24.10235 | 35061 ft | 478 kts | 146° |
| 2026-05-09 09:14 | 39.87722 | 24.15498 | 35073 ft | 479 kts | 146° |
| 2026-05-09 09:14 | 39.82418 | 24.20751 | 35070 ft | 479 kts | 146° |
| 2026-05-09 09:15 | 39.77107 | 24.26008 | 35059 ft | 479 kts | 146° |
| 2026-05-09 09:15 | 39.71788 | 24.31263 | 35055 ft | 480 kts | 146° |
| 2026-05-09 09:16 | 39.66493 | 24.36488 | 35058 ft | 481 kts | 146° |
| 2026-05-09 09:16 | 39.58462 | 24.44387 | 35060 ft | 482 kts | 146° |
| 2026-05-09 09:17 | 39.53131 | 24.49613 | 35067 ft | 482 kts | 146° |
| 2026-05-09 09:17 | 39.47772 | 24.54867 | 35044 ft | 483 kts | 147° |
| 2026-05-09 09:18 | 39.42435 | 24.60087 | 35050 ft | 484 kts | 147° |
| 2026-05-09 09:18 | 39.37049 | 24.65336 | 35057 ft | 484 kts | 147° |
| 2026-05-09 09:19 | 39.31661 | 24.70575 | 35062 ft | 485 kts | 147° |
| 2026-05-09 09:19 | 39.26258 | 24.75818 | 35066 ft | 485 kts | 147° |
| 2026-05-09 09:20 | 39.20895 | 24.81024 | 35057 ft | 485 kts | 147° |
| 2026-05-09 09:20 | 39.15379 | 24.86056 | 35059 ft | 480 kts | 156° |
| 2026-05-09 09:21 | 39.12346 | 24.87775 | 35059 ft | 473 kts | 167° |
| 2026-05-09 09:21 | 39.09215 | 24.88767 | 35061 ft | 465 kts | 178° |
| 2026-05-09 09:21 | 39.02868 | 24.88679 | 35063 ft | 449 kts | 197° |
| 2026-05-09 09:22 | 38.96942 | 24.86538 | 35045 ft | 443 kts | 203° |
| 2026-05-09 09:22 | 38.91980 | 24.84626 | 35060 ft | 444 kts | 203° |
| 2026-05-09 09:23 | 38.86095 | 24.82379 | 35065 ft | 444 kts | 203° |
| 2026-05-09 09:23 | 38.80163 | 24.80111 | 35055 ft | 444 kts | 204° |
| 2026-05-09 09:24 | 38.74239 | 24.77837 | 34997 ft | 443 kts | 204° |
| 2026-05-09 09:24 | 38.71293 | 24.76707 | 34755 ft | 441 kts | 204° |
| 2026-05-09 09:24 | 38.68347 | 24.75580 | 34519 ft | 441 kts | 204° |
| 2026-05-09 09:25 | 38.65409 | 24.74456 | 34283 ft | 440 kts | 204° |
| 2026-05-09 09:25 | 38.62508 | 24.73348 | 34019 ft | 440 kts | 205° |
| 2026-05-09 09:25 | 38.59577 | 24.72235 | 33749 ft | 438 kts | 205° |
| 2026-05-09 09:25 | 38.56657 | 24.71126 | 33480 ft | 438 kts | 205° |
| 2026-05-09 09:26 | 38.53731 | 24.70011 | 33212 ft | 438 kts | 205° |
| 2026-05-09 09:26 | 38.50801 | 24.68891 | 32949 ft | 439 kts | 205° |
| 2026-05-09 09:26 | 38.47866 | 24.67769 | 32687 ft | 440 kts | 205° |
| 2026-05-09 09:26 | 38.44934 | 24.66652 | 32427 ft | 440 kts | 205° |
| 2026-05-09 09:27 | 38.41991 | 24.65536 | 32146 ft | 441 kts | 206° |
| 2026-05-09 09:27 | 38.39054 | 24.64425 | 31893 ft | 440 kts | 206° |
| 2026-05-09 09:27 | 38.36156 | 24.63324 | 31644 ft | 441 kts | 206° |
| 2026-05-09 09:27 | 38.33217 | 24.62208 | 31395 ft | 441 kts | 206° |
| 2026-05-09 09:28 | 38.30269 | 24.61091 | 31147 ft | 442 kts | 206° |
| 2026-05-09 09:28 | 38.27320 | 24.59975 | 30913 ft | 442 kts | 206° |
| 2026-05-09 09:28 | 38.24365 | 24.58863 | 30678 ft | 442 kts | 205° |
| 2026-05-09 09:28 | 38.21417 | 24.57755 | 30386 ft | 439 kts | 206° |
| 2026-05-09 09:29 | 38.18496 | 24.56663 | 30147 ft | 436 kts | 206° |
| 2026-05-09 09:29 | 38.15590 | 24.55576 | 29872 ft | 433 kts | 206° |
| 2026-05-09 09:29 | 38.12720 | 24.54499 | 29371 ft | 428 kts | 206° |
| 2026-05-09 09:29 | 38.09888 | 24.53436 | 28821 ft | 421 kts | 206° |
| 2026-05-09 09:30 | 38.07094 | 24.52390 | 28286 ft | 416 kts | 205° |
| 2026-05-09 09:30 | 38.04335 | 24.51359 | 27752 ft | 410 kts | 205° |
| 2026-05-09 09:30 | 38.01646 | 24.50353 | 27230 ft | 406 kts | 205° |
| 2026-05-09 09:30 | 37.98948 | 24.49336 | 26711 ft | 401 kts | 206° |
| 2026-05-09 09:31 | 37.96310 | 24.48248 | 26174 ft | 396 kts | 207° |
| 2026-05-09 09:31 | 37.93725 | 24.47086 | 25649 ft | 391 kts | 208° |
| 2026-05-09 09:31 | 37.91183 | 24.45895 | 25132 ft | 387 kts | 208° |
| 2026-05-09 09:32 | 37.86175 | 24.43541 | 24115 ft | 381 kts | 207° |
| 2026-05-09 09:32 | 37.83688 | 24.42398 | 23600 ft | 379 kts | 206° |
| 2026-05-09 09:32 | 37.81217 | 24.41280 | 23084 ft | 375 kts | 206° |
| 2026-05-09 09:32 | 37.78766 | 24.40182 | 22610 ft | 370 kts | 206° |
| 2026-05-09 09:33 | 37.76354 | 24.39109 | 22164 ft | 365 kts | 206° |
| 2026-05-09 09:33 | 37.73972 | 24.38046 | 21697 ft | 366 kts | 206° |
| 2026-05-09 09:33 | 37.71525 | 24.36939 | 21182 ft | 378 kts | 206° |
| 2026-05-09 09:33 | 37.69045 | 24.35820 | 20680 ft | 379 kts | 206° |
| 2026-05-09 09:34 | 37.66584 | 24.34717 | 19988 ft | 381 kts | 205° |
| 2026-05-09 09:34 | 37.64055 | 24.33696 | 19297 ft | 386 kts | 197° |
| 2026-05-09 09:34 | 37.61342 | 24.33611 | 18706 ft | 397 kts | 176° |
| 2026-05-09 09:36 | 37.54492 | 24.55001 | 14365 ft | 410 kts | 94° |
| 2026-05-09 09:36 | 37.54327 | 24.58537 | 13782 ft | 407 kts | 94° |
| 2026-05-09 09:36 | 37.54153 | 24.62087 | 13124 ft | 404 kts | 94° |
| 2026-05-09 09:37 | 37.53975 | 24.65604 | 12484 ft | 401 kts | 95° |
| 2026-05-09 09:37 | 37.53797 | 24.69095 | 11858 ft | 397 kts | 95° |
| 2026-05-09 09:37 | 37.53617 | 24.72548 | 11243 ft | 394 kts | 95° |
| 2026-05-09 09:37 | 37.53437 | 24.75974 | 10639 ft | 390 kts | 95° |
| 2026-05-09 09:38 | 37.53259 | 24.79372 | 10071 ft | 386 kts | 95° |
| 2026-05-09 09:38 | 37.53089 | 24.82668 | 9905 ft | 366 kts | 95° |
| 2026-05-09 09:38 | 37.52935 | 24.85729 | 9713 ft | 335 kts | 95° |
| 2026-05-09 09:38 | 37.52792 | 24.88576 | 9212 ft | 319 kts | 96° |
| 2026-05-09 09:39 | 37.52651 | 24.91341 | 8476 ft | 314 kts | 96° |
| 2026-05-09 09:39 | 37.52509 | 24.94067 | 7760 ft | 313 kts | 96° |
| 2026-05-09 09:39 | 37.52363 | 24.96788 | 7343 ft | 309 kts | 96° |
| 2026-05-09 09:39 | 37.52218 | 24.99477 | 6800 ft | 306 kts | 96° |
| 2026-05-09 09:40 | 37.52071 | 25.02149 | 6188 ft | 306 kts | 96° |
| 2026-05-09 09:40 | 37.51918 | 25.04852 | 5348 ft | 312 kts | 96° |
| 2026-05-09 09:40 | 37.51769 | 25.07562 | 4876 ft | 304 kts | 96° |
| 2026-05-09 09:40 | 37.51633 | 25.10127 | 4663 ft | 288 kts | 96° |
| 2026-05-09 09:41 | 37.51507 | 25.12562 | 4529 ft | 271 kts | 96° |
| 2026-05-09 09:41 | 37.51429 | 25.14860 | 4476 ft | 255 kts | 88° |
| 2026-05-09 09:41 | 37.51830 | 25.16993 | 4205 ft | 250 kts | 75° |
| 2026-05-09 09:41 | 37.52335 | 25.19092 | 3757 ft | 252 kts | 74° |
| 2026-05-09 09:42 | 37.52848 | 25.21217 | 3247 ft | 256 kts | 75° |
| 2026-05-09 09:42 | 37.53172 | 25.22798 | 2961 ft | 253 kts | 83° |
| 2026-05-09 09:42 | 37.53264 | 25.23983 | 2785 ft | 248 kts | 93° |
| 2026-05-09 09:43 | 37.53073 | 25.26065 | 2710 ft | 235 kts | 106° |
| 2026-05-09 09:43 | 37.52432 | 25.27879 | 2513 ft | 220 kts | 133° |
| 2026-05-09 09:43 | 37.51393 | 25.29170 | 2285 ft | 202 kts | 148° |
| 2026-05-09 09:43 | 37.50302 | 25.30183 | 1975 ft | 187 kts | 145° |
| 2026-05-09 09:44 | 37.49433 | 25.31265 | 1777 ft | 167 kts | 134° |
| 2026-05-09 09:44 | 37.48695 | 25.32350 | 1405 ft | 160 kts | 145° |
| 2026-05-09 09:44 | 37.47726 | 25.32968 | 1043 ft | 153 kts | 164° |
| 2026-05-09 09:44 | 37.46738 | 25.33394 | 806 ft | 148 kts | 159° |
| 2026-05-09 09:45 | 37.45773 | 25.33816 | 628 ft | 146 kts | 156° |
| 2026-05-09 09:45 | 37.44820 | 25.34239 | 490 ft | 145 kts | 155° |
| 2026-05-09 09:45 | 37.43878 | 25.34666 | 412 ft | 138 kts | 159° |
| 2026-05-09 09:45 | 37.43249 | 25.34941 | 413 ft | 52 kts | 161° |
| 2026-05-09 09:46 | 37.43095 | 25.35008 | 413 ft | 18 kts | 161° |
| 2026-05-09 09:46 | 37.42862 | 25.35112 | 412 ft | 32 kts | 160° |
| 2026-05-09 09:46 | 37.42724 | 25.35149 | 410 ft | 15 kts | 135° |
| 2026-05-09 09:46 | 37.42747 | 25.35193 | 410 ft | 9 kts | 346° |
| 2026-05-09 09:47 | 37.42836 | 25.35123 | 411 ft | 21 kts | 335° |
| 2026-05-09 09:47 | 37.42991 | 25.35052 | 414 ft | 26 kts | 341° |
| 2026-05-09 09:47 | 37.43168 | 25.34975 | 412 ft | 28 kts | 341° |
| 2026-05-09 09:47 | 37.43343 | 25.34896 | 410 ft | 21 kts | 338° |
| 2026-05-09 09:48 | 37.43417 | 25.34776 | 409 ft | 16 kts | 297° |
| 2026-05-09 09:48 | 37.43466 | 25.34729 | 408 ft | 3 kts | 335° |
| 2026-05-09 09:48 | 37.43476 | 25.34718 | 408 ft | 1 kts | 294° |
| 2026-05-09 09:48 | 37.43470 | 25.34684 | 407 ft | 2 kts | 252° |
| 2026-05-09 09:49 | 37.43465 | 25.34666 | 404 ft | 1 kts | 251° |
| 2026-05-09 09:49 | 37.43464 | 25.34662 | 405 ft | 0 kts | 251° |